sensor_id;sensor_type;location;lat;lon;timestamp;pressure;altitude;pressure_sealevel;temperature
7830;BMP180;3960;51.86894000;5.39848000;2023-03-24T00:00:03;99833.88;;;12.03
7830;BMP180;3960;51.86894000;5.39848000;2023-03-24T00:02:30;99836.47;;;12.07
7830;BMP180;3960;51.86894000;5.39848000;2023-03-24T00:05:01;99833.00;;;12.06
7830;BMP180;3960;51.86894000;5.39848000;2023-03-24T00:07:27;99833.00;;;12.06
7830;BMP180;3960;51.86894000;5.39848000;2023-03-24T00:09:54;99822.59;;;12.05
7830;BMP180;3960;51.86894000;5.39848000;2023-03-24T00:12:19;99805.25;;;12.02
7830;BMP180;3960;51.86894000;5.39848000;2023-03-24T00:14:45;99812.59;;;12.02
7830;BMP180;3960;51.86894000;5.39848000;2023-03-24T00:17:11;99825.59;;;12.07
7830;BMP180;3960;51.86894000;5.39848000;2023-03-24T00:19:38;99792.03;;;11.92
7830;BMP180;3960;51.86894000;5.39848000;2023-03-24T00:22:05;99811.63;;;12.08
7830;BMP180;3960;51.86894000;5.39848000;2023-03-24T00:24:31;99799.69;;;12.06
7830;BMP180;3960;51.86894000;5.39848000;2023-03-24T00:26:57;99803.50;;;12.08
7830;BMP180;3960;51.86894000;5.39848000;2023-03-24T00:29:23;99778.63;;;11.97
7830;BMP180;3960;51.86894000;5.39848000;2023-03-24T00:31:50;99795.66;;;12.10
7830;BMP180;3960;51.86894000;5.39848000;2023-03-24T00:34:17;99784.91;;;12.07
7830;BMP180;3960;51.86894000;5.39848000;2023-03-24T00:36:46;99789.81;;;12.12
7830;BMP180;3960;51.86894000;5.39848000;2023-03-24T00:39:13;99790.88;;;12.14
7830;BMP180;3960;51.86894000;5.39848000;2023-03-24T00:41:39;99789.22;;;12.17
7830;BMP180;3960;51.86894000;5.39848000;2023-03-24T00:44:09;99777.59;;;12.16
7830;BMP180;3960;51.86894000;5.39848000;2023-03-24T00:46:49;99767.19;;;12.15
7830;BMP180;3960;51.86894000;5.39848000;2023-03-24T00:49:25;99766.34;;;12.18
7830;BMP180;3960;51.86894000;5.39848000;2023-03-24T00:52:17;99746.88;;;12.19
7830;BMP180;3960;51.86894000;5.39848000;2023-03-24T00:54:46;99749.47;;;12.23
7830;BMP180;3960;51.86894000;5.39848000;2023-03-24T00:57:12;99738.63;;;12.23
7830;BMP180;3960;51.86894000;5.39848000;2023-03-24T00:59:39;99751.19;;;12.29
7830;BMP180;3960;51.86894000;5.39848000;2023-03-24T01:02:08;99738.50;;;12.26
7830;BMP180;3960;51.86894000;5.39848000;2023-03-24T01:04:37;99739.13;;;12.30
7830;BMP180;3960;51.86894000;5.39848000;2023-03-24T01:07:02;99734.34;;;12.34
7830;BMP180;3960;51.86894000;5.39848000;2023-03-24T01:09:27;99723.03;;;12.36
7830;BMP180;3960;51.86894000;5.39848000;2023-03-24T01:11:53;99718.19;;;12.31
7830;BMP180;3960;51.86894000;5.39848000;2023-03-24T01:14:18;99726.69;;;12.41
7830;BMP180;3960;51.86894000;5.39848000;2023-03-24T01:16:43;99722.34;;;12.44
7830;BMP180;3960;51.86894000;5.39848000;2023-03-24T01:19:10;99715.84;;;12.41
7830;BMP180;3960;51.86894000;5.39848000;2023-03-24T01:21:36;99708.50;;;12.51
7830;BMP180;3960;51.86894000;5.39848000;2023-03-24T01:24:03;99721.97;;;12.54
7830;BMP180;3960;51.86894000;5.39848000;2023-03-24T01:26:29;99712.16;;;12.57
7830;BMP180;3960;51.86894000;5.39848000;2023-03-24T01:28:55;99717.16;;;12.58
7830;BMP180;3960;51.86894000;5.39848000;2023-03-24T01:31:20;99723.97;;;12.63
7830;BMP180;3960;51.86894000;5.39848000;2023-03-24T01:33:45;99715.41;;;12.64
7830;BMP180;3960;51.86894000;5.39848000;2023-03-24T01:36:11;99713.88;;;12.63
7830;BMP180;3960;51.86894000;5.39848000;2023-03-24T01:38:36;99710.09;;;12.61
7830;BMP180;3960;51.86894000;5.39848000;2023-03-24T01:41:03;99705.59;;;12.67
7830;BMP180;3960;51.86894000;5.39848000;2023-03-24T01:43:30;99694.41;;;12.65
7830;BMP180;3960;51.86894000;5.39848000;2023-03-24T01:46:18;99699.72;;;12.68
7830;BMP180;3960;51.86894000;5.39848000;2023-03-24T01:48:59;99692.03;;;12.67
7830;BMP180;3960;51.86894000;5.39848000;2023-03-24T01:51:36;99699.72;;;12.68
7830;BMP180;3960;51.86894000;5.39848000;2023-03-24T01:54:26;99692.03;;;12.67
7830;BMP180;3960;51.86894000;5.39848000;2023-03-24T01:57:01;99677.63;;;12.57
7830;BMP180;3960;51.86894000;5.39848000;2023-03-24T01:59:30;99683.09;;;12.66
7830;BMP180;3960;51.86894000;5.39848000;2023-03-24T02:01:57;99679.00;;;12.62
7830;BMP180;3960;51.86894000;5.39848000;2023-03-24T02:04:30;99688.53;;;12.66
7830;BMP180;3960;51.86894000;5.39848000;2023-03-24T02:06:57;99674.47;;;12.59
7830;BMP180;3960;51.86894000;5.39848000;2023-03-24T02:09:23;99687.78;;;12.66
7830;BMP180;3960;51.86894000;5.39848000;2023-03-24T02:11:48;99684.75;;;12.64
7830;BMP180;3960;51.86894000;5.39848000;2023-03-24T02:14:13;99678.25;;;12.61
7830;BMP180;3960;51.86894000;5.39848000;2023-03-24T02:16:52;99668.91;;;12.62
7830;BMP180;3960;51.86894000;5.39848000;2023-03-24T02:19:56;99671.63;;;12.62
7830;BMP180;3960;51.86894000;5.39848000;2023-03-24T02:28:45;99662.84;;;12.58
7830;BMP180;3960;51.86894000;5.39848000;2023-03-24T02:31:34;99665.88;;;12.60
7830;BMP180;3960;51.86894000;5.39848000;2023-03-24T02:37:08;99675.66;;;12.58
7830;BMP180;3960;51.86894000;5.39848000;2023-03-24T02:42:19;99745.94;;;12.56
7830;BMP180;3960;51.86894000;5.39848000;2023-03-24T02:45:05;99758.16;;;12.51
7830;BMP180;3960;51.86894000;5.39848000;2023-03-24T02:47:50;99769.06;;;12.39
7830;BMP180;3960;51.86894000;5.39848000;2023-03-24T02:50:46;99755.03;;;12.19
7830;BMP180;3960;51.86894000;5.39848000;2023-03-24T02:53:19;99746.19;;;12.06
7830;BMP180;3960;51.86894000;5.39848000;2023-03-24T02:55:54;99758.56;;;11.95
7830;BMP180;3960;51.86894000;5.39848000;2023-03-24T02:58:30;99762.41;;;11.85
7830;BMP180;3960;51.86894000;5.39848000;2023-03-24T03:01:02;99761.69;;;11.72
7830;BMP180;3960;51.86894000;5.39848000;2023-03-24T03:03:39;99776.44;;;11.71
7830;BMP180;3960;51.86894000;5.39848000;2023-03-24T03:08:33;99778.06;;;11.56
7830;BMP180;3960;51.86894000;5.39848000;2023-03-24T03:11:02;99789.03;;;11.53
7830;BMP180;3960;51.86894000;5.39848000;2023-03-24T03:13:35;99780.31;;;11.45
7830;BMP180;3960;51.86894000;5.39848000;2023-03-24T03:16:23;99797.66;;;11.48
7830;BMP180;3960;51.86894000;5.39848000;2023-03-24T03:19:00;99817.59;;;11.41
7830;BMP180;3960;51.86894000;5.39848000;2023-03-24T03:21:31;99818.25;;;11.33
7830;BMP180;3960;51.86894000;5.39848000;2023-03-24T03:24:05;99808.06;;;11.24
7830;BMP180;3960;51.86894000;5.39848000;2023-03-24T03:26:31;99829.41;;;11.22
7830;BMP180;3960;51.86894000;5.39848000;2023-03-24T03:29:02;99824.97;;;11.16
7830;BMP180;3960;51.86894000;5.39848000;2023-03-24T03:31:37;99822.91;;;11.07
7830;BMP180;3960;51.86894000;5.39848000;2023-03-24T03:34:30;99814.00;;;10.94
7830;BMP180;3960;51.86894000;5.39848000;2023-03-24T03:37:06;99832.63;;;10.92
7830;BMP180;3960;51.86894000;5.39848000;2023-03-24T03:39:38;99830.38;;;10.75
7830;BMP180;3960;51.86894000;5.39848000;2023-03-24T03:42:04;99861.50;;;10.83
7830;BMP180;3960;51.86894000;5.39848000;2023-03-24T03:44:31;99867.13;;;10.76
7830;BMP180;3960;51.86894000;5.39848000;2023-03-24T03:46:56;99876.09;;;10.73
7830;BMP180;3960;51.86894000;5.39848000;2023-03-24T03:49:22;99884.81;;;10.65
7830;BMP180;3960;51.86894000;5.39848000;2023-03-24T03:51:50;99887.31;;;10.59
7830;BMP180;3960;51.86894000;5.39848000;2023-03-24T03:54:15;99893.13;;;10.58
7830;BMP180;3960;51.86894000;5.39848000;2023-03-24T03:56:42;99877.41;;;10.53
7830;BMP180;3960;51.86894000;5.39848000;2023-03-24T03:59:20;99879.94;;;10.44
7830;BMP180;3960;51.86894000;5.39848000;2023-03-24T04:01:47;99890.47;;;10.42
7830;BMP180;3960;51.86894000;5.39848000;2023-03-24T04:04:39;99903.03;;;10.48
7830;BMP180;3960;51.86894000;5.39848000;2023-03-24T04:07:22;99900.75;;;10.47
7830;BMP180;3960;51.86894000;5.39848000;2023-03-24T04:15:30;99909.16;;;10.36
7830;BMP180;3960;51.86894000;5.39848000;2023-03-24T04:18:23;99922.41;;;10.47
7830;BMP180;3960;51.86894000;5.39848000;2023-03-24T04:26:33;99938.84;;;10.40
7830;BMP180;3960;51.86894000;5.39848000;2023-03-24T04:29:19;99936.38;;;10.29
7830;BMP180;3960;51.86894000;5.39848000;2023-03-24T04:31:51;99954.81;;;10.34
7830;BMP180;3960;51.86894000;5.39848000;2023-03-24T04:34:20;99931.22;;;10.19
7830;BMP180;3960;51.86894000;5.39848000;2023-03-24T04:36:51;99980.09;;;10.28
7830;BMP180;3960;51.86894000;5.39848000;2023-03-24T04:39:24;99975.53;;;10.25
7830;BMP180;3960;51.86894000;5.39848000;2023-03-24T04:41:55;99941.72;;;10.17
7830;BMP180;3960;51.86894000;5.39848000;2023-03-24T04:44:22;99958.69;;;10.18
7830;BMP180;3960;51.86894000;5.39848000;2023-03-24T04:46:55;99959.22;;;10.13
7830;BMP180;3960;51.86894000;5.39848000;2023-03-24T04:49:21;99955.28;;;9.98
7830;BMP180;3960;51.86894000;5.39848000;2023-03-24T04:51:49;99964.78;;;10.06
7830;BMP180;3960;51.86894000;5.39848000;2023-03-24T04:54:16;99958.47;;;9.93
7830;BMP180;3960;51.86894000;5.39848000;2023-03-24T04:56:47;99962.44;;;9.88
7830;BMP180;3960;51.86894000;5.39848000;2023-03-24T04:59:13;99975.44;;;9.93
7830;BMP180;3960;51.86894000;5.39848000;2023-03-24T05:01:39;99975.16;;;9.88
7830;BMP180;3960;51.86894000;5.39848000;2023-03-24T05:04:05;99966.09;;;9.78
7830;BMP180;3960;51.86894000;5.39848000;2023-03-24T05:06:31;99975.28;;;9.84
7830;BMP180;3960;51.86894000;5.39848000;2023-03-24T05:08:57;99995.78;;;9.82
7830;BMP180;3960;51.86894000;5.39848000;2023-03-24T05:11:23;99996.22;;;9.80
7830;BMP180;3960;51.86894000;5.39848000;2023-03-24T05:13:49;99997.81;;;9.78
7830;BMP180;3960;51.86894000;5.39848000;2023-03-24T05:16:15;99994.69;;;9.79
7830;BMP180;3960;51.86894000;5.39848000;2023-03-24T05:18:40;100000.88;;;9.80
7830;BMP180;3960;51.86894000;5.39848000;2023-03-24T05:21:06;99997.38;;;9.79
7830;BMP180;3960;51.86894000;5.39848000;2023-03-24T05:23:31;99993.56;;;9.77
7830;BMP180;3960;51.86894000;5.39848000;2023-03-24T05:25:57;99995.59;;;9.73
7830;BMP180;3960;51.86894000;5.39848000;2023-03-24T05:28:22;100005.91;;;9.78
7830;BMP180;3960;51.86894000;5.39848000;2023-03-24T05:30:48;100015.63;;;9.75
7830;BMP180;3960;51.86894000;5.39848000;2023-03-24T05:33:13;100020.19;;;9.78
7830;BMP180;3960;51.86894000;5.39848000;2023-03-24T05:35:38;100028.28;;;9.78
7830;BMP180;3960;51.86894000;5.39848000;2023-03-24T05:38:03;100025.66;;;9.75
7830;BMP180;3960;51.86894000;5.39848000;2023-03-24T05:40:29;100031.41;;;9.77
7830;BMP180;3960;51.86894000;5.39848000;2023-03-24T05:42:54;100038.78;;;9.76
7830;BMP180;3960;51.86894000;5.39848000;2023-03-24T05:45:19;100007.81;;;9.61
7830;BMP180;3960;51.86894000;5.39848000;2023-03-24T05:47:46;100034.13;;;9.77
7830;BMP180;3960;51.86894000;5.39848000;2023-03-24T05:50:11;100038.00;;;9.76
7830;BMP180;3960;51.86894000;5.39848000;2023-03-24T05:52:36;100043.34;;;9.79
7830;BMP180;3960;51.86894000;5.39848000;2023-03-24T05:55:02;100030.75;;;9.73
7830;BMP180;3960;51.86894000;5.39848000;2023-03-24T05:57:27;100031.41;;;9.77
7830;BMP180;3960;51.86894000;5.39848000;2023-03-24T05:59:56;100044.72;;;9.87
7830;BMP180;3960;51.86894000;5.39848000;2023-03-24T06:02:22;100043.19;;;9.86
7830;BMP180;3960;51.86894000;5.39848000;2023-03-24T06:04:48;100045.41;;;9.91
7830;BMP180;3960;51.86894000;5.39848000;2023-03-24T06:07:15;100054.97;;;9.96
7830;BMP180;3960;51.86894000;5.39848000;2023-03-24T06:09:40;100051.84;;;10.01
7830;BMP180;3960;51.86894000;5.39848000;2023-03-24T06:12:07;100060.06;;;10.13
7830;BMP180;3960;51.86894000;5.39848000;2023-03-24T06:14:32;100064.63;;;10.16
7830;BMP180;3960;51.86894000;5.39848000;2023-03-24T06:16:57;100064.63;;;10.16
7830;BMP180;3960;51.86894000;5.39848000;2023-03-24T06:19:24;100058.44;;;10.16
7830;BMP180;3960;51.86894000;5.39848000;2023-03-24T06:21:51;100063.03;;;10.18
7830;BMP180;3960;51.86894000;5.39848000;2023-03-24T06:24:17;100082.16;;;10.27
7830;BMP180;3960;51.86894000;5.39848000;2023-03-24T06:26:44;100066.34;;;10.26
7830;BMP180;3960;51.86894000;5.39848000;2023-03-24T06:29:10;100085.88;;;10.33
7830;BMP180;3960;51.86894000;5.39848000;2023-03-24T06:31:37;100072.44;;;10.30
7830;BMP180;3960;51.86894000;5.39848000;2023-03-24T06:34:03;100076.19;;;10.36
7830;BMP180;3960;51.86894000;5.39848000;2023-03-24T06:36:28;100084.91;;;10.43
7830;BMP180;3960;51.86894000;5.39848000;2023-03-24T06:38:53;100086.78;;;10.46
7830;BMP180;3960;51.86894000;5.39848000;2023-03-24T06:41:19;100077.22;;;10.42
7830;BMP180;3960;51.86894000;5.39848000;2023-03-24T06:43:44;100094.38;;;10.51
7830;BMP180;3960;51.86894000;5.39848000;2023-03-24T06:46:10;100095.56;;;10.50
7830;BMP180;3960;51.86894000;5.39848000;2023-03-24T06:48:35;100087.09;;;10.48
7830;BMP180;3960;51.86894000;5.39848000;2023-03-24T06:51:01;100107.78;;;10.58
7830;BMP180;3960;51.86894000;5.39848000;2023-03-24T06:53:26;100103.19;;;10.55
7830;BMP180;3960;51.86894000;5.39848000;2023-03-24T06:55:51;100092.34;;;10.55
7830;BMP180;3960;51.86894000;5.39848000;2023-03-24T06:58:17;100096.44;;;10.63
7830;BMP180;3960;51.86894000;5.39848000;2023-03-24T07:00:43;100119.72;;;10.77
7830;BMP180;3960;51.86894000;5.39848000;2023-03-24T07:03:09;100116.50;;;10.82
7830;BMP180;3960;51.86894000;5.39848000;2023-03-24T07:05:38;100124.97;;;10.84
7830;BMP180;3960;51.86894000;5.39848000;2023-03-24T07:08:04;100124.88;;;10.87
7830;BMP180;3960;51.86894000;5.39848000;2023-03-24T07:10:30;100118.63;;;10.90
7830;BMP180;3960;51.86894000;5.39848000;2023-03-24T07:12:55;100114.22;;;10.96
7830;BMP180;3960;51.86894000;5.39848000;2023-03-24T07:15:21;100132.91;;;11.54
7830;BMP180;3960;51.86894000;5.39848000;2023-03-24T07:17:46;100115.97;;;11.66
7830;BMP180;3960;51.86894000;5.39848000;2023-03-24T07:20:12;100135.47;;;11.89
7830;BMP180;3960;51.86894000;5.39848000;2023-03-24T07:22:38;100141.53;;;11.93
7830;BMP180;3960;51.86894000;5.39848000;2023-03-24T07:25:04;100138.16;;;12.30
7830;BMP180;3960;51.86894000;5.39848000;2023-03-24T07:27:31;100155.69;;;12.41
7830;BMP180;3960;51.86894000;5.39848000;2023-03-24T07:30:00;100153.09;;;12.75
7830;BMP180;3960;51.86894000;5.39848000;2023-03-24T07:32:28;100161.13;;;13.28
7830;BMP180;3960;51.86894000;5.39848000;2023-03-24T07:34:54;100161.72;;;13.91
7830;BMP180;3960;51.86894000;5.39848000;2023-03-24T07:37:19;100144.69;;;13.78
7830;BMP180;3960;51.86894000;5.39848000;2023-03-24T07:39:45;100150.25;;;13.28
7830;BMP180;3960;51.86894000;5.39848000;2023-03-24T07:42:11;100158.34;;;13.07
7830;BMP180;3960;51.86894000;5.39848000;2023-03-24T07:44:37;100152.88;;;12.82
7830;BMP180;3960;51.86894000;5.39848000;2023-03-24T07:47:02;100153.09;;;13.25
7830;BMP180;3960;51.86894000;5.39848000;2023-03-24T07:49:27;100159.94;;;13.17
7830;BMP180;3960;51.86894000;5.39848000;2023-03-24T07:51:52;100156.69;;;13.22
7830;BMP180;3960;51.86894000;5.39848000;2023-03-24T07:54:18;100156.16;;;13.94
7830;BMP180;3960;51.86894000;5.39848000;2023-03-24T07:56:43;100162.09;;;14.14
7830;BMP180;3960;51.86894000;5.39848000;2023-03-24T07:59:08;100171.69;;;14.28
7830;BMP180;3960;51.86894000;5.39848000;2023-03-24T08:01:35;100169.47;;;14.35
7830;BMP180;3960;51.86894000;5.39848000;2023-03-24T08:04:04;100160.19;;;14.24
7830;BMP180;3960;51.86894000;5.39848000;2023-03-24T08:06:30;100168.47;;;14.20
7830;BMP180;3960;51.86894000;5.39848000;2023-03-24T08:08:56;100176.91;;;14.01
7830;BMP180;3960;51.86894000;5.39848000;2023-03-24T08:11:21;100174.38;;;14.06
7830;BMP180;3960;51.86894000;5.39848000;2023-03-24T08:13:46;100165.63;;;14.24
7830;BMP180;3960;51.86894000;5.39848000;2023-03-24T08:16:12;100172.72;;;14.52
7830;BMP180;3960;51.86894000;5.39848000;2023-03-24T08:18:37;100186.06;;;14.80
7830;BMP180;3960;51.86894000;5.39848000;2023-03-24T08:21:03;100188.28;;;15.03
7830;BMP180;3960;51.86894000;5.39848000;2023-03-24T08:23:29;100196.59;;;15.30
7830;BMP180;3960;51.86894000;5.39848000;2023-03-24T08:25:54;100193.59;;;15.54
7830;BMP180;3960;51.86894000;5.39848000;2023-03-24T08:28:20;100184.69;;;15.72
7830;BMP180;3960;51.86894000;5.39848000;2023-03-24T08:30:45;100195.31;;;16.06
7830;BMP180;3960;51.86894000;5.39848000;2023-03-24T08:33:12;100199.53;;;15.62
7830;BMP180;3960;51.86894000;5.39848000;2023-03-24T08:35:38;100209.06;;;15.66
7830;BMP180;3960;51.86894000;5.39848000;2023-03-24T08:38:06;100209.78;;;15.40
7830;BMP180;3960;51.86894000;5.39848000;2023-03-24T08:40:31;100198.19;;;15.75
7830;BMP180;3960;51.86894000;5.39848000;2023-03-24T08:43:00;100218.69;;;15.98
7830;BMP180;3960;51.86894000;5.39848000;2023-03-24T08:45:28;100204.56;;;16.08
7830;BMP180;3960;51.86894000;5.39848000;2023-03-24T08:47:56;100207.31;;;16.35
7830;BMP180;3960;51.86894000;5.39848000;2023-03-24T08:50:25;100215.34;;;15.94
7830;BMP180;3960;51.86894000;5.39848000;2023-03-24T08:52:52;100224.22;;;15.58
7830;BMP180;3960;51.86894000;5.39848000;2023-03-24T08:55:18;100213.03;;;15.17
7830;BMP180;3960;51.86894000;5.39848000;2023-03-24T08:57:44;100211.03;;;14.78
7830;BMP180;3960;51.86894000;5.39848000;2023-03-24T09:00:13;100219.31;;;14.66
7830;BMP180;3960;51.86894000;5.39848000;2023-03-24T09:02:43;100222.03;;;14.45
7830;BMP180;3960;51.86894000;5.39848000;2023-03-24T09:05:09;100224.97;;;14.29
7830;BMP180;3960;51.86894000;5.39848000;2023-03-24T09:07:35;100233.50;;;14.40
7830;BMP180;3960;51.86894000;5.39848000;2023-03-24T09:10:00;100233.75;;;14.33
7830;BMP180;3960;51.86894000;5.39848000;2023-03-24T09:12:26;100217.53;;;14.29
7830;BMP180;3960;51.86894000;5.39848000;2023-03-24T09:14:51;100240.19;;;14.69
7830;BMP180;3960;51.86894000;5.39848000;2023-03-24T09:17:17;100242.25;;;14.56
7830;BMP180;3960;51.86894000;5.39848000;2023-03-24T09:19:43;100222.97;;;14.29
7830;BMP180;3960;51.86894000;5.39848000;2023-03-24T09:22:09;100246.63;;;14.11
7830;BMP180;3960;51.86894000;5.39848000;2023-03-24T09:24:34;100239.28;;;14.42
7830;BMP180;3960;51.86894000;5.39848000;2023-03-24T09:26:59;100250.06;;;14.97
7830;BMP180;3960;51.86894000;5.39848000;2023-03-24T09:29:25;100244.78;;;14.72
7830;BMP180;3960;51.86894000;5.39848000;2023-03-24T09:31:50;100248.84;;;14.46
7830;BMP180;3960;51.86894000;5.39848000;2023-03-24T09:34:17;100246.38;;;14.39
7830;BMP180;3960;51.86894000;5.39848000;2023-03-24T09:36:42;100235.31;;;14.21
7830;BMP180;3960;51.86894000;5.39848000;2023-03-24T09:39:08;100257.78;;;14.13
7830;BMP180;3960;51.86894000;5.39848000;2023-03-24T09:41:33;100257.97;;;13.84
7830;BMP180;3960;51.86894000;5.39848000;2023-03-24T09:44:03;100255.19;;;13.51
7830;BMP180;3960;51.86894000;5.39848000;2023-03-24T09:46:35;100251.44;;;13.82
7830;BMP180;3960;51.86894000;5.39848000;2023-03-24T09:49:02;100258.41;;;14.51
7830;BMP180;3960;51.86894000;5.39848000;2023-03-24T09:51:31;100269.81;;;15.10
7830;BMP180;3960;51.86894000;5.39848000;2023-03-24T09:54:25;100269.16;;;15.27
7830;BMP180;3960;51.86894000;5.39848000;2023-03-24T09:56:54;100270.38;;;15.92
7830;BMP180;3960;51.86894000;5.39848000;2023-03-24T09:59:35;100263.63;;;16.41
7830;BMP180;3960;51.86894000;5.39848000;2023-03-24T10:02:09;100262.53;;;16.21
7830;BMP180;3960;51.86894000;5.39848000;2023-03-24T10:04:35;100269.66;;;16.09
7830;BMP180;3960;51.86894000;5.39848000;2023-03-24T10:07:12;100265.13;;;16.24
7830;BMP180;3960;51.86894000;5.39848000;2023-03-24T10:09:40;100270.56;;;15.98
7830;BMP180;3960;51.86894000;5.39848000;2023-03-24T10:20:53;100279.25;;;16.59
7830;BMP180;3960;51.86894000;5.39848000;2023-03-24T10:25:48;100277.31;;;17.51
7830;BMP180;3960;51.86894000;5.39848000;2023-03-24T10:28:21;100276.19;;;17.34
7830;BMP180;3960;51.86894000;5.39848000;2023-03-24T10:30:50;100255.22;;;16.63
7830;BMP180;3960;51.86894000;5.39848000;2023-03-24T10:33:16;100275.72;;;16.05
7830;BMP180;3960;51.86894000;5.39848000;2023-03-24T10:36:01;100255.31;;;15.52
7830;BMP180;3960;51.86894000;5.39848000;2023-03-24T10:38:28;100275.22;;;15.31
7830;BMP180;3960;51.86894000;5.39848000;2023-03-24T10:40:54;100275.38;;;15.67
7830;BMP180;3960;51.86894000;5.39848000;2023-03-24T10:43:22;100282.63;;;15.61
7830;BMP180;3960;51.86894000;5.39848000;2023-03-24T10:45:52;100275.59;;;15.21
7830;BMP180;3960;51.86894000;5.39848000;2023-03-24T10:48:44;100282.16;;;14.93
7830;BMP180;3960;51.86894000;5.39848000;2023-03-24T10:53:44;100294.47;;;14.08
7830;BMP180;3960;51.86894000;5.39848000;2023-03-24T10:56:36;100317.53;;;13.58
7830;BMP180;3960;51.86894000;5.39848000;2023-03-24T10:59:15;100309.50;;;13.29
7830;BMP180;3960;51.86894000;5.39848000;2023-03-24T11:01:42;100316.53;;;13.14
7830;BMP180;3960;51.86894000;5.39848000;2023-03-24T11:04:13;100301.31;;;13.17
7830;BMP180;3960;51.86894000;5.39848000;2023-03-24T11:06:56;100293.94;;;13.17
7830;BMP180;3960;51.86894000;5.39848000;2023-03-24T11:09:24;100289.47;;;13.11
7830;BMP180;3960;51.86894000;5.39848000;2023-03-24T11:11:50;100283.69;;;13.59
7830;BMP180;3960;51.86894000;5.39848000;2023-03-24T11:14:26;100294.47;;;14.55
7830;BMP180;3960;51.86894000;5.39848000;2023-03-24T11:17:01;100298.25;;;15.30
7830;BMP180;3960;51.86894000;5.39848000;2023-03-24T11:19:26;100288.78;;;15.43
7830;BMP180;3960;51.86894000;5.39848000;2023-03-24T11:22:04;100283.41;;;15.70
7830;BMP180;3960;51.86894000;5.39848000;2023-03-24T11:24:34;100279.00;;;15.82
7830;BMP180;3960;51.86894000;5.39848000;2023-03-24T11:27:01;100288.88;;;15.79
7830;BMP180;3960;51.86894000;5.39848000;2023-03-24T11:29:29;100274.72;;;15.63
7830;BMP180;3960;51.86894000;5.39848000;2023-03-24T11:31:57;100281.00;;;15.33
7830;BMP180;3960;51.86894000;5.39848000;2023-03-24T11:34:27;100265.13;;;14.80
7830;BMP180;3960;51.86894000;5.39848000;2023-03-24T11:37:04;100291.78;;;14.42
7830;BMP180;3960;51.86894000;5.39848000;2023-03-24T11:39:33;100314.00;;;14.07
7830;BMP180;3960;51.86894000;5.39848000;2023-03-24T11:47:09;100331.22;;;12.04
7830;BMP180;3960;51.86894000;5.39848000;2023-03-24T11:50:00;100338.25;;;11.69
7830;BMP180;3960;51.86894000;5.39848000;2023-03-24T11:52:28;100325.63;;;11.63
7830;BMP180;3960;51.86894000;5.39848000;2023-03-24T11:54:55;100325.97;;;11.46
7830;BMP180;3960;51.86894000;5.39848000;2023-03-24T11:57:34;100320.72;;;11.39
7830;BMP180;3960;51.86894000;5.39848000;2023-03-24T12:00:20;100326.13;;;11.39
7830;BMP180;3960;51.86894000;5.39848000;2023-03-24T12:03:05;100324.97;;;11.40
7830;BMP180;3960;51.86894000;5.39848000;2023-03-24T12:05:57;100317.25;;;11.38
7830;BMP180;3960;51.86894000;5.39848000;2023-03-24T12:17:23;100281.13;;;11.61
7830;BMP180;3960;51.86894000;5.39848000;2023-03-24T12:20:00;100288.97;;;12.03
7830;BMP180;3960;51.86894000;5.39848000;2023-03-24T12:22:48;100290.09;;;12.62
7830;BMP180;3960;51.86894000;5.39848000;2023-03-24T12:28:03;100287.53;;;13.49
7830;BMP180;3960;51.86894000;5.39848000;2023-03-24T12:39:13;100277.97;;;13.19
7830;BMP180;3960;51.86894000;5.39848000;2023-03-24T12:41:56;100277.75;;;13.26
7830;BMP180;3960;51.86894000;5.39848000;2023-03-24T12:44:42;100270.66;;;13.41
7830;BMP180;3960;51.86894000;5.39848000;2023-03-24T12:55:49;100240.97;;;13.34
7830;BMP180;3960;51.86894000;5.39848000;2023-03-24T13:01:12;100303.19;;;12.79
7830;BMP180;3960;51.86894000;5.39848000;2023-03-24T13:03:45;100276.66;;;12.14
7830;BMP180;3960;51.86894000;5.39848000;2023-03-24T13:08:48;100273.28;;;11.31
7830;BMP180;3960;51.86894000;5.39848000;2023-03-24T13:11:17;100272.44;;;11.18
7830;BMP180;3960;51.86894000;5.39848000;2023-03-24T13:13:45;100261.66;;;11.14
7830;BMP180;3960;51.86894000;5.39848000;2023-03-24T13:16:17;100268.94;;;11.17
7830;BMP180;3960;51.86894000;5.39848000;2023-03-24T13:18:49;100266.50;;;11.23
7830;BMP180;3960;51.86894000;5.39848000;2023-03-24T13:21:17;100260.72;;;11.21
7830;BMP180;3960;51.86894000;5.39848000;2023-03-24T13:23:49;100260.13;;;11.29
7830;BMP180;3960;51.86894000;5.39848000;2023-03-24T13:26:23;100265.66;;;11.42
7830;BMP180;3960;51.86894000;5.39848000;2023-03-24T13:32:10;100253.06;;;11.67
7830;BMP180;3960;51.86894000;5.39848000;2023-03-24T13:34:40;100248.88;;;12.51
7830;BMP180;3960;51.86894000;5.39848000;2023-03-24T13:37:18;100257.94;;;13.13
7830;BMP180;3960;51.86894000;5.39848000;2023-03-24T13:39:46;100270.19;;;12.93
7830;BMP180;3960;51.86894000;5.39848000;2023-03-24T13:42:41;100283.84;;;12.77
7830;BMP180;3960;51.86894000;5.39848000;2023-03-24T13:45:17;100289.88;;;12.69
7830;BMP180;3960;51.86894000;5.39848000;2023-03-24T13:50:35;100292.00;;;12.21
7830;BMP180;3960;51.86894000;5.39848000;2023-03-24T13:53:09;100288.06;;;11.93
7830;BMP180;3960;51.86894000;5.39848000;2023-03-24T13:55:37;100295.78;;;11.79
7830;BMP180;3960;51.86894000;5.39848000;2023-03-24T13:58:22;100300.84;;;11.61
7830;BMP180;3960;51.86894000;5.39848000;2023-03-24T14:03:46;100300.41;;;11.31
7830;BMP180;3960;51.86894000;5.39848000;2023-03-24T14:06:48;100312.38;;;11.14
7830;BMP180;3960;51.86894000;5.39848000;2023-03-24T14:09:25;100328.09;;;11.03
7830;BMP180;3960;51.86894000;5.39848000;2023-03-24T14:14:24;100309.78;;;10.72
7830;BMP180;3960;51.86894000;5.39848000;2023-03-24T14:19:36;100295.69;;;11.51
7830;BMP180;3960;51.86894000;5.39848000;2023-03-24T14:22:27;100288.84;;;11.78